Aviation Digital Data Service (ADDS)

Output produced by METARs form (2313 UTC 18 August 2019)
found at http://www.aviationweather.gov/metar/data/
 
METAR text: LFTW 182300Z AUTO VRB02KT 7000 FEW007 20/20 Q1016
Conditions at: LFTW (NIMES/GARONS (NA, FR) observed 2300 UTC 18 August 2019
Temperature: 20.0°C (68°F)
Dewpoint: 20.0°C (68°F) [RH = 100%]
Pressure (altimeter): 30.00 inches Hg (1016.0 mb)
Winds: variable direction winds at 2 MPH (2 knots; 1.0 m/s)
Visibility: 4 miles ( 7 km)
Ceiling: at least 12,000 feet AGL
Clouds: few clouds at 700 feet AGL
Weather: no significant weather observed at this time

METAR text: LFTW 182230Z AUTO VRB01KT 8000 FEW009 21/20 Q1016
Conditions at: LFTW (NIMES/GARONS (NA, FR) observed 2230 UTC 18 August 2019
Temperature: 21.0°C (70°F)
Dewpoint: 20.0°C (68°F) [RH = 94%]
Pressure (altimeter): 30.00 inches Hg (1016.0 mb)
Winds: variable direction winds at 1 MPH (1 knots; 0.5 m/s)
Visibility: 5 miles ( 8 km)
Ceiling: at least 12,000 feet AGL
Clouds: few clouds at 900 feet AGL
Weather: no significant weather observed at this time

METAR text: LFTW 182200Z AUTO 13004KT CAVOK 21/20 Q1016
Conditions at: LFTW (NIMES/GARONS (NA, FR) observed 2200 UTC 18 August 2019
Temperature: 21.0°C (70°F)
Dewpoint: 20.0°C (68°F) [RH = 94%]
Pressure (altimeter): 30.00 inches Hg (1016.0 mb)
Winds: from the SE (130 degrees) at 5 MPH (4 knots; 2.1 m/s)
Visibility: 6 or more miles (10+ km)
Ceiling: ceiling and visibility are OK
Clouds: unknown
Weather: no significant weather observed at this time

METAR text: LFTW 182130Z AUTO 16005KT 9999 FEW005 SCT064 21/20 Q1016
Conditions at: LFTW (NIMES/GARONS (NA, FR) observed 2130 UTC 18 August 2019
Temperature: 21.0°C (70°F)
Dewpoint: 20.0°C (68°F) [RH = 94%]
Pressure (altimeter): 30.00 inches Hg (1016.0 mb)
Winds: from the SSE (160 degrees) at 6 MPH (5 knots; 2.6 m/s)
Visibility: 6 or more miles (10+ km)
Ceiling: at least 12,000 feet AGL
Clouds: few clouds at 500 feet AGL
scattered clouds at 6400 feet AGL
Weather: no significant weather observed at this time

METAR text: LFTW 182100Z AUTO 17006KT 9999 SCT006 22/20 Q1015
Conditions at: LFTW (NIMES/GARONS (NA, FR) observed 2100 UTC 18 August 2019
Temperature: 22.0°C (72°F)
Dewpoint: 20.0°C (68°F) [RH = 88%]
Pressure (altimeter): 29.97 inches Hg (1015.0 mb)
Winds: from the S (170 degrees) at 7 MPH (6 knots; 3.1 m/s)
Visibility: 6 or more miles (10+ km)
Ceiling: at least 12,000 feet AGL
Clouds: scattered clouds at 600 feet AGL
Weather: no significant weather observed at this time

METAR text: LFTW 182030Z AUTO 19006KT 160V230 CAVOK 22/20 Q1015
Conditions at: LFTW (NIMES/GARONS (NA, FR) observed 2030 UTC 18 August 2019
Temperature: 22.0°C (72°F)
Dewpoint: 20.0°C (68°F) [RH = 88%]
Pressure (altimeter): 29.97 inches Hg (1015.0 mb)
Winds: from the S (190 degrees) at 7 MPH (6 knots; 3.1 m/s)
Visibility: 6 or more miles (10+ km)
Ceiling: ceiling and visibility are OK
Clouds: unknown
Weather: no significant weather observed at this time

METAR text: LFTW 182000Z AUTO 19005KT CAVOK 22/20 Q1015
Conditions at: LFTW (NIMES/GARONS (NA, FR) observed 2000 UTC 18 August 2019
Temperature: 22.0°C (72°F)
Dewpoint: 20.0°C (68°F) [RH = 88%]
Pressure (altimeter): 29.97 inches Hg (1015.0 mb)
Winds: from the S (190 degrees) at 6 MPH (5 knots; 2.6 m/s)
Visibility: 6 or more miles (10+ km)
Ceiling: ceiling and visibility are OK
Clouds: unknown
Weather: no significant weather observed at this time

METAR text: LFTW 181930Z AUTO 21005KT 170V230 CAVOK 22/20 Q1015
Conditions at: LFTW (NIMES/GARONS (NA, FR) observed 1930 UTC 18 August 2019
Temperature: 22.0°C (72°F)
Dewpoint: 20.0°C (68°F) [RH = 88%]
Pressure (altimeter): 29.97 inches Hg (1015.0 mb)
Winds: from the SSW (210 degrees) at 6 MPH (5 knots; 2.6 m/s)
Visibility: 6 or more miles (10+ km)
Ceiling: ceiling and visibility are OK
Clouds: unknown
Weather: no significant weather observed at this time

METAR text: LFTW 181900Z AUTO 18009KT CAVOK 22/19 Q1014 NOSIG
Conditions at: LFTW (NIMES/GARONS (NA, FR) observed 1900 UTC 18 August 2019
Temperature: 22.0°C (72°F)
Dewpoint: 19.0°C (66°F) [RH = 83%]
Pressure (altimeter): 29.94 inches Hg (1014.0 mb)
Winds: from the S (180 degrees) at 10 MPH (9 knots; 4.6 m/s)
Visibility: 6 or more miles (10+ km)
Ceiling: ceiling and visibility are OK
Clouds: unknown
Weather: no significant weather observed at this time

METAR text: LFTW 181830Z AUTO 19005KT 150V220 CAVOK 23/19 Q1014 NOSIG
Conditions at: LFTW (NIMES/GARONS (NA, FR) observed 1830 UTC 18 August 2019
Temperature: 23.0°C (73°F)
Dewpoint: 19.0°C (66°F) [RH = 78%]
Pressure (altimeter): 29.94 inches Hg (1014.0 mb)
Winds: from the S (190 degrees) at 6 MPH (5 knots; 2.6 m/s)
Visibility: 6 or more miles (10+ km)
Ceiling: ceiling and visibility are OK
Clouds: unknown
Weather: no significant weather observed at this time

METAR text: LFTW 181800Z AUTO 18009KT 160V230 CAVOK 24/19 Q1014 NOSIG
Conditions at: LFTW (NIMES/GARONS (NA, FR) observed 1800 UTC 18 August 2019
Temperature: 24.0°C (75°F)
Dewpoint: 19.0°C (66°F) [RH = 74%]
Pressure (altimeter): 29.94 inches Hg (1014.0 mb)
Winds: from the S (180 degrees) at 10 MPH (9 knots; 4.6 m/s)
Visibility: 6 or more miles (10+ km)
Ceiling: ceiling and visibility are OK
Clouds: unknown
Weather: no significant weather observed at this time

METAR text: LFTW 181730Z AUTO 18010KT 150V220 CAVOK 26/17 Q1014 NOSIG
Conditions at: LFTW (NIMES/GARONS (NA, FR) observed 1730 UTC 18 August 2019
Temperature: 26.0°C (79°F)
Dewpoint: 17.0°C (63°F) [RH = 58%]
Pressure (altimeter): 29.94 inches Hg (1014.0 mb)
Winds: from the S (180 degrees) at 12 MPH (10 knots; 5.1 m/s)
Visibility: 6 or more miles (10+ km)
Ceiling: ceiling and visibility are OK
Clouds: unknown
Weather: no significant weather observed at this time

METAR text: LFTW 181700Z AUTO 20008KT 170V230 CAVOK 26/17 Q1014 NOSIG
Conditions at: LFTW (NIMES/GARONS (NA, FR) observed 1700 UTC 18 August 2019
Temperature: 26.0°C (79°F)
Dewpoint: 17.0°C (63°F) [RH = 58%]
Pressure (altimeter): 29.94 inches Hg (1014.0 mb)
Winds: from the SSW (200 degrees) at 9 MPH (8 knots; 4.1 m/s)
Visibility: 6 or more miles (10+ km)
Ceiling: ceiling and visibility are OK
Clouds: unknown
Weather: no significant weather observed at this time

METAR text: LFTW 181630Z AUTO 20010KT 170V240 CAVOK 27/17 Q1014 NOSIG
Conditions at: LFTW (NIMES/GARONS (NA, FR) observed 1630 UTC 18 August 2019
Temperature: 27.0°C (81°F)
Dewpoint: 17.0°C (63°F) [RH = 54%]
Pressure (altimeter): 29.94 inches Hg (1014.0 mb)
Winds: from the SSW (200 degrees) at 12 MPH (10 knots; 5.1 m/s)
Visibility: 6 or more miles (10+ km)
Ceiling: ceiling and visibility are OK
Clouds: unknown
Weather: no significant weather observed at this time

METAR text: LFTW 181600Z AUTO 22010KT 180V250 CAVOK 28/17 Q1014 NOSIG
Conditions at: LFTW (NIMES/GARONS (NA, FR) observed 1600 UTC 18 August 2019
Temperature: 28.0°C (82°F)
Dewpoint: 17.0°C (63°F) [RH = 51%]
Pressure (altimeter): 29.94 inches Hg (1014.0 mb)
Winds: from the SW (220 degrees) at 12 MPH (10 knots; 5.1 m/s)
Visibility: 6 or more miles (10+ km)
Ceiling: ceiling and visibility are OK
Clouds: unknown
Weather: no significant weather observed at this time

METAR text: LFTW 181530Z AUTO 19010KT 140V230 CAVOK 28/18 Q1014 NOSIG
Conditions at: LFTW (NIMES/GARONS (NA, FR) observed 1530 UTC 18 August 2019
Temperature: 28.0°C (82°F)
Dewpoint: 18.0°C (64°F) [RH = 55%]
Pressure (altimeter): 29.94 inches Hg (1014.0 mb)
Winds: from the S (190 degrees) at 12 MPH (10 knots; 5.1 m/s)
Visibility: 6 or more miles (10+ km)
Ceiling: ceiling and visibility are OK
Clouds: unknown
Weather: no significant weather observed at this time

METAR text: LFTW 181500Z AUTO 18010KT 130V250 9999 FEW031 29/19 Q1014 NOSIG
Conditions at: LFTW (NIMES/GARONS (NA, FR) observed 1500 UTC 18 August 2019
Temperature: 29.0°C (84°F)
Dewpoint: 19.0°C (66°F) [RH = 55%]
Pressure (altimeter): 29.94 inches Hg (1014.0 mb)
Winds: from the S (180 degrees) at 12 MPH (10 knots; 5.1 m/s)
Visibility: 6 or more miles (10+ km)
Ceiling: at least 12,000 feet AGL
Clouds: few clouds at 3100 feet AGL
Weather: no significant weather observed at this time

METAR text: LFTW 181430Z AUTO 17012KT 120V230 CAVOK 28/18 Q1014 NOSIG
Conditions at: LFTW (NIMES/GARONS (NA, FR) observed 1430 UTC 18 August 2019
Temperature: 28.0°C (82°F)
Dewpoint: 18.0°C (64°F) [RH = 55%]
Pressure (altimeter): 29.94 inches Hg (1014.0 mb)
Winds: from the S (170 degrees) at 14 MPH (12 knots; 6.2 m/s)
Visibility: 6 or more miles (10+ km)
Ceiling: ceiling and visibility are OK
Clouds: unknown
Weather: no significant weather observed at this time

METAR text: LFTW 181400Z AUTO 17014KT 130V200 9999 FEW031 29/17 Q1015 NOSIG
Conditions at: LFTW (NIMES/GARONS (NA, FR) observed 1400 UTC 18 August 2019
Temperature: 29.0°C (84°F)
Dewpoint: 17.0°C (63°F) [RH = 48%]
Pressure (altimeter): 29.97 inches Hg (1015.0 mb)
Winds: from the S (170 degrees) at 16 MPH (14 knots; 7.2 m/s)
Visibility: 6 or more miles (10+ km)
Ceiling: at least 12,000 feet AGL
Clouds: few clouds at 3100 feet AGL
Weather: no significant weather observed at this time

METAR text: LFTW 181330Z AUTO 16013KT 130V190 9999 FEW031 28/19 Q1015 NOSIG
Conditions at: LFTW (NIMES/GARONS (NA, FR) observed 1330 UTC 18 August 2019
Temperature: 28.0°C (82°F)
Dewpoint: 19.0°C (66°F) [RH = 58%]
Pressure (altimeter): 29.97 inches Hg (1015.0 mb)
Winds: from the SSE (160 degrees) at 15 MPH (13 knots; 6.7 m/s)
Visibility: 6 or more miles (10+ km)
Ceiling: at least 12,000 feet AGL
Clouds: few clouds at 3100 feet AGL
Weather: no significant weather observed at this time

METAR text: LFTW 181300Z AUTO 18012KT 130V220 9999 FEW032 29/18 Q1015 NOSIG
Conditions at: LFTW (NIMES/GARONS (NA, FR) observed 1300 UTC 18 August 2019
Temperature: 29.0°C (84°F)
Dewpoint: 18.0°C (64°F) [RH = 52%]
Pressure (altimeter): 29.97 inches Hg (1015.0 mb)
Winds: from the S (180 degrees) at 14 MPH (12 knots; 6.2 m/s)
Visibility: 6 or more miles (10+ km)
Ceiling: at least 12,000 feet AGL
Clouds: few clouds at 3200 feet AGL
Weather: no significant weather observed at this time

METAR text: LFTW 181230Z AUTO 17012KT 140V220 9999 FEW030 29/19 Q1015 NOSIG
Conditions at: LFTW (NIMES/GARONS (NA, FR) observed 1230 UTC 18 August 2019
Temperature: 29.0°C (84°F)
Dewpoint: 19.0°C (66°F) [RH = 55%]
Pressure (altimeter): 29.97 inches Hg (1015.0 mb)
Winds: from the S (170 degrees) at 14 MPH (12 knots; 6.2 m/s)
Visibility: 6 or more miles (10+ km)
Ceiling: at least 12,000 feet AGL
Clouds: few clouds at 3000 feet AGL
Weather: no significant weather observed at this time

METAR text: LFTW 181200Z AUTO 17013KT 130V220 9999 BKN029 29/19 Q1015 NOSIG
Conditions at: LFTW (NIMES/GARONS (NA, FR) observed 1200 UTC 18 August 2019
Temperature: 29.0°C (84°F)
Dewpoint: 19.0°C (66°F) [RH = 55%]
Pressure (altimeter): 29.97 inches Hg (1015.0 mb)
Winds: from the S (170 degrees) at 15 MPH (13 knots; 6.7 m/s)
Visibility: 6 or more miles (10+ km)
Ceiling: 2900 feet AGL
Clouds: broken clouds at 2900 feet AGL
Weather: no significant weather observed at this time

METAR text: LFTW 181130Z AUTO 15014KT 120V190 9999 SCT029 29/20 Q1015 NOSIG
Conditions at: LFTW (NIMES/GARONS (NA, FR) observed 1130 UTC 18 August 2019
Temperature: 29.0°C (84°F)
Dewpoint: 20.0°C (68°F) [RH = 58%]
Pressure (altimeter): 29.97 inches Hg (1015.0 mb)
Winds: from the SSE (150 degrees) at 16 MPH (14 knots; 7.2 m/s)
Visibility: 6 or more miles (10+ km)
Ceiling: at least 12,000 feet AGL
Clouds: scattered clouds at 2900 feet AGL
Weather: no significant weather observed at this time

METAR text: LFTW 181100Z AUTO 15013KT 120V190 9999 BKN027 BKN034 28/19 Q1015 NOSIG
Conditions at: LFTW (NIMES/GARONS (NA, FR) observed 1100 UTC 18 August 2019
Temperature: 28.0°C (82°F)
Dewpoint: 19.0°C (66°F) [RH = 58%]
Pressure (altimeter): 29.97 inches Hg (1015.0 mb)
Winds: from the SSE (150 degrees) at 15 MPH (13 knots; 6.7 m/s)
Visibility: 6 or more miles (10+ km)
Ceiling: 2700 feet AGL
Clouds: broken clouds at 2700 feet AGL
broken clouds at 3400 feet AGL
Weather: no significant weather observed at this time

METAR text: LFTW 181030Z AUTO 16013KT 120V190 9999 BKN023 BKN029 BKN043 26/19 Q1015 NOSIG
Conditions at: LFTW (NIMES/GARONS (NA, FR) observed 1030 UTC 18 August 2019
Temperature: 26.0°C (79°F)
Dewpoint: 19.0°C (66°F) [RH = 65%]
Pressure (altimeter): 29.97 inches Hg (1015.0 mb)
Winds: from the SSE (160 degrees) at 15 MPH (13 knots; 6.7 m/s)
Visibility: 6 or more miles (10+ km)
Ceiling: 2300 feet AGL
Clouds: broken clouds at 2300 feet AGL
broken clouds at 2900 feet AGL
broken clouds at 4300 feet AGL
Weather: no significant weather observed at this time

METAR text: LFTW 181000Z AUTO 15014KT 130V190 9999 BKN024 BKN033 OVC041 28/20 Q1015 TEMPO BKN012
Conditions at: LFTW (NIMES/GARONS (NA, FR) observed 1000 UTC 18 August 2019
Temperature: 28.0°C (82°F)
Dewpoint: 20.0°C (68°F) [RH = 62%]
Pressure (altimeter): 29.97 inches Hg (1015.0 mb)
Winds: from the SSE (150 degrees) at 16 MPH (14 knots; 7.2 m/s)
Visibility: 6 or more miles (10+ km)
Ceiling: 2400 feet AGL
Clouds: broken clouds at 2400 feet AGL
broken clouds at 3300 feet AGL
overcast cloud deck at 4100 feet AGL
Weather: no significant weather observed at this time

METAR text: LFTW 180930Z AUTO 16012KT 130V200 9999 BKN018 BKN033 27/21 Q1015 TEMPO BKN012
Conditions at: LFTW (NIMES/GARONS (NA, FR) observed 0930 UTC 18 August 2019
Temperature: 27.0°C (81°F)
Dewpoint: 21.0°C (70°F) [RH = 70%]
Pressure (altimeter): 29.97 inches Hg (1015.0 mb)
Winds: from the SSE (160 degrees) at 14 MPH (12 knots; 6.2 m/s)
Visibility: 6 or more miles (10+ km)
Ceiling: 1800 feet AGL
Clouds: broken clouds at 1800 feet AGL
broken clouds at 3300 feet AGL
Weather: no significant weather observed at this time

METAR text: LFTW 180900Z AUTO 16013KT 9999 BKN017 BKN023 BKN033 26/21 Q1015 BECMG BKN012
Conditions at: LFTW (NIMES/GARONS (NA, FR) observed 0900 UTC 18 August 2019
Temperature: 26.0°C (79°F)
Dewpoint: 21.0°C (70°F) [RH = 74%]
Pressure (altimeter): 29.97 inches Hg (1015.0 mb)
Winds: from the SSE (160 degrees) at 15 MPH (13 knots; 6.7 m/s)
Visibility: 6 or more miles (10+ km)
Ceiling: 1700 feet AGL
Clouds: broken clouds at 1700 feet AGL
broken clouds at 2300 feet AGL
broken clouds at 3300 feet AGL
Weather: no significant weather observed at this time

METAR text: LFTW 180830Z AUTO 15012KT 120V180 9999 BKN013 OVC019 25/21 Q1015 BECMG NSC
Conditions at: LFTW (NIMES/GARONS (NA, FR) observed 0830 UTC 18 August 2019
Temperature: 25.0°C (77°F)
Dewpoint: 21.0°C (70°F) [RH = 79%]
Pressure (altimeter): 29.97 inches Hg (1015.0 mb)
Winds: from the SSE (150 degrees) at 14 MPH (12 knots; 6.2 m/s)
Visibility: 6 or more miles (10+ km)
Ceiling: 1300 feet AGL
Clouds: broken clouds at 1300 feet AGL
overcast cloud deck at 1900 feet AGL
Weather: no significant weather observed at this time

METAR text: LFTW 180800Z AUTO 14010KT 9999 OVC011 24/21 Q1015 TEMPO 2000 BR BECMG NSC
Conditions at: LFTW (NIMES/GARONS (NA, FR) observed 0800 UTC 18 August 2019
Temperature: 24.0°C (75°F)
Dewpoint: 21.0°C (70°F) [RH = 83%]
Pressure (altimeter): 29.97 inches Hg (1015.0 mb)
Winds: from the SE (140 degrees) at 12 MPH (10 knots; 5.1 m/s)
Visibility: 6 or more miles (10+ km)
Ceiling: 1100 feet AGL
Clouds: overcast cloud deck at 1100 feet AGL
Weather: no significant weather observed at this time

METAR text: LFTW 180730Z AUTO 14010KT 120V190 9999 OVC008 23/21 Q1015 TEMPO 2000 BR BECMG NSC
Conditions at: LFTW (NIMES/GARONS (NA, FR) observed 0730 UTC 18 August 2019
Temperature: 23.0°C (73°F)
Dewpoint: 21.0°C (70°F) [RH = 89%]
Pressure (altimeter): 29.97 inches Hg (1015.0 mb)
Winds: from the SE (140 degrees) at 12 MPH (10 knots; 5.1 m/s)
Visibility: 6 or more miles (10+ km)
Ceiling: 800 feet AGL
Clouds: overcast cloud deck at 800 feet AGL
Weather: no significant weather observed at this time

METAR text: LFTW 180700Z AUTO 13009KT 9999 OVC007 23/20 Q1014 TEMPO 2000 BR BKN003
Conditions at: LFTW (NIMES/GARONS (NA, FR) observed 0700 UTC 18 August 2019
Temperature: 23.0°C (73°F)
Dewpoint: 20.0°C (68°F) [RH = 83%]
Pressure (altimeter): 29.94 inches Hg (1014.0 mb)
Winds: from the SE (130 degrees) at 10 MPH (9 knots; 4.6 m/s)
Visibility: 6 or more miles (10+ km)
Ceiling: 700 feet AGL
Clouds: overcast cloud deck at 700 feet AGL
Weather: no significant weather observed at this time

METAR text: LFTW 180630Z AUTO 13007KT 100V160 9999 BKN008 OVC013 22/20 Q1014 TEMPO 2000 BR BKN003
Conditions at: LFTW (NIMES/GARONS (NA, FR) observed 0630 UTC 18 August 2019
Temperature: 22.0°C (72°F)
Dewpoint: 20.0°C (68°F) [RH = 88%]
Pressure (altimeter): 29.94 inches Hg (1014.0 mb)
Winds: from the SE (130 degrees) at 8 MPH (7 knots; 3.6 m/s)
Visibility: 6 or more miles (10+ km)
Ceiling: 800 feet AGL
Clouds: broken clouds at 800 feet AGL
overcast cloud deck at 1300 feet AGL
Weather: no significant weather observed at this time

METAR text: LFTW 180600Z AUTO 12006KT 090V150 7000 FEW007 BKN012 OVC019 21/20 Q1014 TEMPO 2000 BR BKN003
Conditions at: LFTW (NIMES/GARONS (NA, FR) observed 0600 UTC 18 August 2019
Temperature: 21.0°C (70°F)
Dewpoint: 20.0°C (68°F) [RH = 94%]
Pressure (altimeter): 29.94 inches Hg (1014.0 mb)
Winds: from the ESE (120 degrees) at 7 MPH (6 knots; 3.1 m/s)
Visibility: 4 miles ( 7 km)
Ceiling: 1200 feet AGL
Clouds: few clouds at 700 feet AGL
broken clouds at 1200 feet AGL
overcast cloud deck at 1900 feet AGL
Weather: no significant weather observed at this time

METAR text: LFTW 180530Z AUTO 12006KT 6000 SCT006 BKN012 BKN017 21/20 Q1014 TEMPO 2000 BR BKN003
Conditions at: LFTW (NIMES/GARONS (NA, FR) observed 0530 UTC 18 August 2019
Temperature: 21.0°C (70°F)
Dewpoint: 20.0°C (68°F) [RH = 94%]
Pressure (altimeter): 29.94 inches Hg (1014.0 mb)
Winds: from the ESE (120 degrees) at 7 MPH (6 knots; 3.1 m/s)
Visibility: 4 miles ( 6 km)
Ceiling: 1200 feet AGL
Clouds: scattered clouds at 600 feet AGL
broken clouds at 1200 feet AGL
broken clouds at 1700 feet AGL
Weather: no significant weather observed at this time

METAR text: LFTW 180500Z AUTO 12006KT 5000 BR BKN005 OVC019 22/21 Q1014 TEMPO 2000 BR
Conditions at: LFTW (NIMES/GARONS (NA, FR) observed 0500 UTC 18 August 2019
Temperature: 22.0°C (72°F)
Dewpoint: 21.0°C (70°F) [RH = 94%]
Pressure (altimeter): 29.94 inches Hg (1014.0 mb)
Winds: from the ESE (120 degrees) at 7 MPH (6 knots; 3.1 m/s)
Visibility: 3 miles ( 5 km)
Ceiling: 500 feet AGL
Clouds: broken clouds at 500 feet AGL
overcast cloud deck at 1900 feet AGL
Weather: BR  (mist)

METAR text: LFTW 180430Z AUTO 13007KT 5000 BR BKN004 OVC017 22/21 Q1014 TEMPO 2000 BR
Conditions at: LFTW (NIMES/GARONS (NA, FR) observed 0430 UTC 18 August 2019
Temperature: 22.0°C (72°F)
Dewpoint: 21.0°C (70°F) [RH = 94%]
Pressure (altimeter): 29.94 inches Hg (1014.0 mb)
Winds: from the SE (130 degrees) at 8 MPH (7 knots; 3.6 m/s)
Visibility: 3 miles ( 5 km)
Ceiling: 400 feet AGL
Clouds: broken clouds at 400 feet AGL
overcast cloud deck at 1700 feet AGL
Weather: BR  (mist)

METAR text: LFTW 180400Z AUTO 13008KT 4300 BR BKN003 BKN007 OVC012 22/21 Q1014 TEMPO 2000 BR
Conditions at: LFTW (NIMES/GARONS (NA, FR) observed 0400 UTC 18 August 2019
Temperature: 22.0°C (72°F)
Dewpoint: 21.0°C (70°F) [RH = 94%]
Pressure (altimeter): 29.94 inches Hg (1014.0 mb)
Winds: from the SE (130 degrees) at 9 MPH (8 knots; 4.1 m/s)
Visibility: 2.67 miles (4.30 km)
Ceiling: 300 feet AGL
Clouds: broken clouds at 300 feet AGL
broken clouds at 700 feet AGL
overcast cloud deck at 1200 feet AGL
Weather: BR  (mist)

METAR text: LFTW 180330Z AUTO 13007KT 4800 BR BKN004 OVC010 22/21 Q1014 TEMPO 2000 BR
Conditions at: LFTW (NIMES/GARONS (NA, FR) observed 0330 UTC 18 August 2019
Temperature: 22.0°C (72°F)
Dewpoint: 21.0°C (70°F) [RH = 94%]
Pressure (altimeter): 29.94 inches Hg (1014.0 mb)
Winds: from the SE (130 degrees) at 8 MPH (7 knots; 3.6 m/s)
Visibility: 2.98 miles (4.80 km)
Ceiling: 400 feet AGL
Clouds: broken clouds at 400 feet AGL
overcast cloud deck at 1000 feet AGL
Weather: BR  (mist)

METAR text: LFTW 180300Z AUTO 15006KT 120V180 5000 BR OVC007 22/21 Q1014
Conditions at: LFTW (NIMES/GARONS (NA, FR) observed 0300 UTC 18 August 2019
Temperature: 22.0°C (72°F)
Dewpoint: 21.0°C (70°F) [RH = 94%]
Pressure (altimeter): 29.94 inches Hg (1014.0 mb)
Winds: from the SSE (150 degrees) at 7 MPH (6 knots; 3.1 m/s)
Visibility: 3 miles ( 5 km)
Ceiling: 700 feet AGL
Clouds: overcast cloud deck at 700 feet AGL
Weather: BR  (mist)

METAR text: LFTW 180230Z AUTO 14007KT 5000 BR OVC006 22/21 Q1015
Conditions at: LFTW (NIMES/GARONS (NA, FR) observed 0230 UTC 18 August 2019
Temperature: 22.0°C (72°F)
Dewpoint: 21.0°C (70°F) [RH = 94%]
Pressure (altimeter): 29.97 inches Hg (1015.0 mb)
Winds: from the SE (140 degrees) at 8 MPH (7 knots; 3.6 m/s)
Visibility: 3 miles ( 5 km)
Ceiling: 600 feet AGL
Clouds: overcast cloud deck at 600 feet AGL
Weather: BR  (mist)

METAR text: LFTW 180200Z AUTO 13006KT 5000 BR OVC006 22/21 Q1015
Conditions at: LFTW (NIMES/GARONS (NA, FR) observed 0200 UTC 18 August 2019
Temperature: 22.0°C (72°F)
Dewpoint: 21.0°C (70°F) [RH = 94%]
Pressure (altimeter): 29.97 inches Hg (1015.0 mb)
Winds: from the SE (130 degrees) at 7 MPH (6 knots; 3.1 m/s)
Visibility: 3 miles ( 5 km)
Ceiling: 600 feet AGL
Clouds: overcast cloud deck at 600 feet AGL
Weather: BR  (mist)

METAR text: LFTW 180130Z AUTO 13006KT 5000 BR BKN003 OVC008 22/21 Q1015
Conditions at: LFTW (NIMES/GARONS (NA, FR) observed 0130 UTC 18 August 2019
Temperature: 22.0°C (72°F)
Dewpoint: 21.0°C (70°F) [RH = 94%]
Pressure (altimeter): 29.97 inches Hg (1015.0 mb)
Winds: from the SE (130 degrees) at 7 MPH (6 knots; 3.1 m/s)
Visibility: 3 miles ( 5 km)
Ceiling: 300 feet AGL
Clouds: broken clouds at 300 feet AGL
overcast cloud deck at 800 feet AGL
Weather: BR  (mist)

METAR text: LFTW 180100Z AUTO 14006KT 5000 BR BKN006 OVC014 22/21 Q1015
Conditions at: LFTW (NIMES/GARONS (NA, FR) observed 0100 UTC 18 August 2019
Temperature: 22.0°C (72°F)
Dewpoint: 21.0°C (70°F) [RH = 94%]
Pressure (altimeter): 29.97 inches Hg (1015.0 mb)
Winds: from the SE (140 degrees) at 7 MPH (6 knots; 3.1 m/s)
Visibility: 3 miles ( 5 km)
Ceiling: 600 feet AGL
Clouds: broken clouds at 600 feet AGL
overcast cloud deck at 1400 feet AGL
Weather: BR  (mist)

METAR text: LFTW 180030Z AUTO 13005KT 6000 BKN010 OVC015 22/21 Q1015
Conditions at: LFTW (NIMES/GARONS (NA, FR) observed 0030 UTC 18 August 2019
Temperature: 22.0°C (72°F)
Dewpoint: 21.0°C (70°F) [RH = 94%]
Pressure (altimeter): 29.97 inches Hg (1015.0 mb)
Winds: from the SE (130 degrees) at 6 MPH (5 knots; 2.6 m/s)
Visibility: 4 miles ( 6 km)
Ceiling: 1000 feet AGL
Clouds: broken clouds at 1000 feet AGL
overcast cloud deck at 1500 feet AGL
Weather: no significant weather observed at this time

METAR text: LFTW 180000Z AUTO 14005KT 6000 FEW006 SCT010 22/21 Q1015
Conditions at: LFTW (NIMES/GARONS (NA, FR) observed 0000 UTC 18 August 2019
Temperature: 22.0°C (72°F)
Dewpoint: 21.0°C (70°F) [RH = 94%]
Pressure (altimeter): 29.97 inches Hg (1015.0 mb)
Winds: from the SE (140 degrees) at 6 MPH (5 knots; 2.6 m/s)
Visibility: 4 miles ( 6 km)
Ceiling: at least 12,000 feet AGL
Clouds: few clouds at 600 feet AGL
scattered clouds at 1000 feet AGL
Weather: no significant weather observed at this time

METAR text: LFTW 172330Z AUTO 13005KT 6000 SCT007 SCT017 22/21 Q1016
Conditions at: LFTW (NIMES/GARONS (NA, FR) observed 2330 UTC 17 August 2019
Temperature: 22.0°C (72°F)
Dewpoint: 21.0°C (70°F) [RH = 94%]
Pressure (altimeter): 30.00 inches Hg (1016.0 mb)
Winds: from the SE (130 degrees) at 6 MPH (5 knots; 2.6 m/s)
Visibility: 4 miles ( 6 km)
Ceiling: at least 12,000 feet AGL
Clouds: scattered clouds at 700 feet AGL
scattered clouds at 1700 feet AGL
Weather: no significant weather observed at this time

METAR text: LFTW 172300Z AUTO 13006KT 6000 BKN003 BKN008 22/21 Q1016
Conditions at: LFTW (NIMES/GARONS (NA, FR) observed 2300 UTC 17 August 2019
Temperature: 22.0°C (72°F)
Dewpoint: 21.0°C (70°F) [RH = 94%]
Pressure (altimeter): 30.00 inches Hg (1016.0 mb)
Winds: from the SE (130 degrees) at 7 MPH (6 knots; 3.1 m/s)
Visibility: 4 miles ( 6 km)
Ceiling: 300 feet AGL
Clouds: broken clouds at 300 feet AGL
broken clouds at 800 feet AGL
Weather: no significant weather observed at this time

METAR text: LFTW 172230Z AUTO 12006KT 6000 BKN004 BKN016 22/22 Q1016
Conditions at: LFTW (NIMES/GARONS (NA, FR) observed 2230 UTC 17 August 2019
Temperature: 22.0°C (72°F)
Dewpoint: 22.0°C (72°F) [RH = 100%]
Pressure (altimeter): 30.00 inches Hg (1016.0 mb)
Winds: from the ESE (120 degrees) at 7 MPH (6 knots; 3.1 m/s)
Visibility: 4 miles ( 6 km)
Ceiling: 400 feet AGL
Clouds: broken clouds at 400 feet AGL
broken clouds at 1600 feet AGL
Weather: no significant weather observed at this time

METAR text: LFTW 172200Z AUTO 13006KT 8000 BKN006 BKN014 BKN019 23/22 Q1016
Conditions at: LFTW (NIMES/GARONS (NA, FR) observed 2200 UTC 17 August 2019
Temperature: 23.0°C (73°F)
Dewpoint: 22.0°C (72°F) [RH = 94%]
Pressure (altimeter): 30.00 inches Hg (1016.0 mb)
Winds: from the SE (130 degrees) at 7 MPH (6 knots; 3.1 m/s)
Visibility: 5 miles ( 8 km)
Ceiling: 600 feet AGL
Clouds: broken clouds at 600 feet AGL
broken clouds at 1400 feet AGL
broken clouds at 1900 feet AGL
Weather: no significant weather observed at this time

METAR text: LFTW 172130Z AUTO 14004KT 9999 FEW007 SCT013 23/22 Q1015
Conditions at: LFTW (NIMES/GARONS (NA, FR) observed 2130 UTC 17 August 2019
Temperature: 23.0°C (73°F)
Dewpoint: 22.0°C (72°F) [RH = 94%]
Pressure (altimeter): 29.97 inches Hg (1015.0 mb)
Winds: from the SE (140 degrees) at 5 MPH (4 knots; 2.1 m/s)
Visibility: 6 or more miles (10+ km)
Ceiling: at least 12,000 feet AGL
Clouds: few clouds at 700 feet AGL
scattered clouds at 1300 feet AGL
Weather: no significant weather observed at this time

METAR text: LFTW 172100Z AUTO 16004KT 9999 FEW010 23/22 Q1015
Conditions at: LFTW (NIMES/GARONS (NA, FR) observed 2100 UTC 17 August 2019
Temperature: 23.0°C (73°F)
Dewpoint: 22.0°C (72°F) [RH = 94%]
Pressure (altimeter): 29.97 inches Hg (1015.0 mb)
Winds: from the SSE (160 degrees) at 5 MPH (4 knots; 2.1 m/s)
Visibility: 6 or more miles (10+ km)
Ceiling: at least 12,000 feet AGL
Clouds: few clouds at 1000 feet AGL
Weather: no significant weather observed at this time

METAR text: LFTW 172030Z AUTO 17003KT 120V200 9999 SCT007 BKN018 23/22 Q1015
Conditions at: LFTW (NIMES/GARONS (NA, FR) observed 2030 UTC 17 August 2019
Temperature: 23.0°C (73°F)
Dewpoint: 22.0°C (72°F) [RH = 94%]
Pressure (altimeter): 29.97 inches Hg (1015.0 mb)
Winds: from the S (170 degrees) at 3 MPH (3 knots; 1.5 m/s)
Visibility: 6 or more miles (10+ km)
Ceiling: 1800 feet AGL
Clouds: scattered clouds at 700 feet AGL
broken clouds at 1800 feet AGL
Weather: no significant weather observed at this time

METAR text: LFTW 172000Z AUTO 19005KT 160V230 9999 BKN007 BKN017 23/21 Q1015
Conditions at: LFTW (NIMES/GARONS (NA, FR) observed 2000 UTC 17 August 2019
Temperature: 23.0°C (73°F)
Dewpoint: 21.0°C (70°F) [RH = 89%]
Pressure (altimeter): 29.97 inches Hg (1015.0 mb)
Winds: from the S (190 degrees) at 6 MPH (5 knots; 2.6 m/s)
Visibility: 6 or more miles (10+ km)
Ceiling: 700 feet AGL
Clouds: broken clouds at 700 feet AGL
broken clouds at 1700 feet AGL
Weather: no significant weather observed at this time

METAR text: LFTW 171930Z AUTO 19006KT 150V230 9999 BKN007 OVC014 23/22 Q1015
Conditions at: LFTW (NIMES/GARONS (NA, FR) observed 1930 UTC 17 August 2019
Temperature: 23.0°C (73°F)
Dewpoint: 22.0°C (72°F) [RH = 94%]
Pressure (altimeter): 29.97 inches Hg (1015.0 mb)
Winds: from the S (190 degrees) at 7 MPH (6 knots; 3.1 m/s)
Visibility: 6 or more miles (10+ km)
Ceiling: 700 feet AGL
Clouds: broken clouds at 700 feet AGL
overcast cloud deck at 1400 feet AGL
Weather: no significant weather observed at this time

METAR text: LFTW 171900Z AUTO 19008KT 160V220 9999 BKN009 OVC013 24/22 Q1015 TEMPO OVC010
Conditions at: LFTW (NIMES/GARONS (NA, FR) observed 1900 UTC 17 August 2019
Temperature: 24.0°C (75°F)
Dewpoint: 22.0°C (72°F) [RH = 89%]
Pressure (altimeter): 29.97 inches Hg (1015.0 mb)
Winds: from the S (190 degrees) at 9 MPH (8 knots; 4.1 m/s)
Visibility: 6 or more miles (10+ km)
Ceiling: 900 feet AGL
Clouds: broken clouds at 900 feet AGL
overcast cloud deck at 1300 feet AGL
Weather: no significant weather observed at this time

METAR text: LFTW 171830Z AUTO 19009KT 160V230 9999 BKN010 24/21 Q1015 NOSIG
Conditions at: LFTW (NIMES/GARONS (NA, FR) observed 1830 UTC 17 August 2019
Temperature: 24.0°C (75°F)
Dewpoint: 21.0°C (70°F) [RH = 83%]
Pressure (altimeter): 29.97 inches Hg (1015.0 mb)
Winds: from the S (190 degrees) at 10 MPH (9 knots; 4.6 m/s)
Visibility: 6 or more miles (10+ km)
Ceiling: 1000 feet AGL
Clouds: broken clouds at 1000 feet AGL
Weather: no significant weather observed at this time

METAR text: LFTW 171800Z AUTO 18010KT CAVOK 25/21 Q1015 TEMPO OVC010
Conditions at: LFTW (NIMES/GARONS (NA, FR) observed 1800 UTC 17 August 2019
Temperature: 25.0°C (77°F)
Dewpoint: 21.0°C (70°F) [RH = 79%]
Pressure (altimeter): 29.97 inches Hg (1015.0 mb)
Winds: from the S (180 degrees) at 12 MPH (10 knots; 5.1 m/s)
Visibility: 6 or more miles (10+ km)
Ceiling: ceiling and visibility are OK
Clouds: unknown
Weather: no significant weather observed at this time

METAR text: LFTW 171730Z AUTO 18010KT 150V210 CAVOK 26/20 Q1015 TEMPO OVC010
Conditions at: LFTW (NIMES/GARONS (NA, FR) observed 1730 UTC 17 August 2019
Temperature: 26.0°C (79°F)
Dewpoint: 20.0°C (68°F) [RH = 70%]
Pressure (altimeter): 29.97 inches Hg (1015.0 mb)
Winds: from the S (180 degrees) at 12 MPH (10 knots; 5.1 m/s)
Visibility: 6 or more miles (10+ km)
Ceiling: ceiling and visibility are OK
Clouds: unknown
Weather: no significant weather observed at this time

METAR text: LFTW 171700Z AUTO 17010KT 120V210 CAVOK 27/19 Q1015 TEMPO OVC010
Conditions at: LFTW (NIMES/GARONS (NA, FR) observed 1700 UTC 17 August 2019
Temperature: 27.0°C (81°F)
Dewpoint: 19.0°C (66°F) [RH = 62%]
Pressure (altimeter): 29.97 inches Hg (1015.0 mb)
Winds: from the S (170 degrees) at 12 MPH (10 knots; 5.1 m/s)
Visibility: 6 or more miles (10+ km)
Ceiling: ceiling and visibility are OK
Clouds: unknown
Weather: no significant weather observed at this time

METAR text: LFTW 171630Z AUTO 19009KT 120V230 CAVOK 28/18 Q1015 TEMPO OVC010
Conditions at: LFTW (NIMES/GARONS (NA, FR) observed 1630 UTC 17 August 2019
Temperature: 28.0°C (82°F)
Dewpoint: 18.0°C (64°F) [RH = 55%]
Pressure (altimeter): 29.97 inches Hg (1015.0 mb)
Winds: from the S (190 degrees) at 10 MPH (9 knots; 4.6 m/s)
Visibility: 6 or more miles (10+ km)
Ceiling: ceiling and visibility are OK
Clouds: unknown
Weather: no significant weather observed at this time

METAR text: LFTW 171600Z AUTO 17008KT 130V210 CAVOK 29/18 Q1015 TEMPO OVC010
Conditions at: LFTW (NIMES/GARONS (NA, FR) observed 1600 UTC 17 August 2019
Temperature: 29.0°C (84°F)
Dewpoint: 18.0°C (64°F) [RH = 52%]
Pressure (altimeter): 29.97 inches Hg (1015.0 mb)
Winds: from the S (170 degrees) at 9 MPH (8 knots; 4.1 m/s)
Visibility: 6 or more miles (10+ km)
Ceiling: ceiling and visibility are OK
Clouds: unknown
Weather: no significant weather observed at this time

METAR text: LFTW 171530Z AUTO 17010KT 140V210 CAVOK 30/14 Q1015 TEMPO OVC010
Conditions at: LFTW (NIMES/GARONS (NA, FR) observed 1530 UTC 17 August 2019
Temperature: 30.0°C (86°F)
Dewpoint: 14.0°C (57°F) [RH = 38%]
Pressure (altimeter): 29.97 inches Hg (1015.0 mb)
Winds: from the S (170 degrees) at 12 MPH (10 knots; 5.1 m/s)
Visibility: 6 or more miles (10+ km)
Ceiling: ceiling and visibility are OK
Clouds: unknown
Weather: no significant weather observed at this time

METAR text: LFTW 171500Z AUTO 18010KT 140V220 CAVOK 29/17 Q1015 TEMPO OVC010
Conditions at: LFTW (NIMES/GARONS (NA, FR) observed 1500 UTC 17 August 2019
Temperature: 29.0°C (84°F)
Dewpoint: 17.0°C (63°F) [RH = 48%]
Pressure (altimeter): 29.97 inches Hg (1015.0 mb)
Winds: from the S (180 degrees) at 12 MPH (10 knots; 5.1 m/s)
Visibility: 6 or more miles (10+ km)
Ceiling: ceiling and visibility are OK
Clouds: unknown
Weather: no significant weather observed at this time

METAR text: LFTW 171430Z AUTO 17011KT 120V200 CAVOK 29/17 Q1015 NOSIG
Conditions at: LFTW (NIMES/GARONS (NA, FR) observed 1430 UTC 17 August 2019
Temperature: 29.0°C (84°F)
Dewpoint: 17.0°C (63°F) [RH = 48%]
Pressure (altimeter): 29.97 inches Hg (1015.0 mb)
Winds: from the S (170 degrees) at 13 MPH (11 knots; 5.7 m/s)
Visibility: 6 or more miles (10+ km)
Ceiling: ceiling and visibility are OK
Clouds: unknown
Weather: no significant weather observed at this time

METAR text: LFTW 171400Z AUTO 18011KT 140V210 CAVOK 30/19 Q1015 NOSIG
Conditions at: LFTW (NIMES/GARONS (NA, FR) observed 1400 UTC 17 August 2019
Temperature: 30.0°C (86°F)
Dewpoint: 19.0°C (66°F) [RH = 52%]
Pressure (altimeter): 29.97 inches Hg (1015.0 mb)
Winds: from the S (180 degrees) at 13 MPH (11 knots; 5.7 m/s)
Visibility: 6 or more miles (10+ km)
Ceiling: ceiling and visibility are OK
Clouds: unknown
Weather: no significant weather observed at this time

METAR text: LFTW 171330Z AUTO 17011KT 140V210 CAVOK 29/19 Q1016 NOSIG
Conditions at: LFTW (NIMES/GARONS (NA, FR) observed 1330 UTC 17 August 2019
Temperature: 29.0°C (84°F)
Dewpoint: 19.0°C (66°F) [RH = 55%]
Pressure (altimeter): 30.00 inches Hg (1016.0 mb)
Winds: from the S (170 degrees) at 13 MPH (11 knots; 5.7 m/s)
Visibility: 6 or more miles (10+ km)
Ceiling: ceiling and visibility are OK
Clouds: unknown
Weather: no significant weather observed at this time

METAR text: LFTW 171300Z AUTO 18011KT 140V210 CAVOK 29/19 Q1016 NOSIG
Conditions at: LFTW (NIMES/GARONS (NA, FR) observed 1300 UTC 17 August 2019
Temperature: 29.0°C (84°F)
Dewpoint: 19.0°C (66°F) [RH = 55%]
Pressure (altimeter): 30.00 inches Hg (1016.0 mb)
Winds: from the S (180 degrees) at 13 MPH (11 knots; 5.7 m/s)
Visibility: 6 or more miles (10+ km)
Ceiling: ceiling and visibility are OK
Clouds: unknown
Weather: no significant weather observed at this time

METAR text: LFTW 171230Z AUTO 16010KT 120V200 CAVOK 29/19 Q1016 NOSIG
Conditions at: LFTW (NIMES/GARONS (NA, FR) observed 1230 UTC 17 August 2019
Temperature: 29.0°C (84°F)
Dewpoint: 19.0°C (66°F) [RH = 55%]
Pressure (altimeter): 30.00 inches Hg (1016.0 mb)
Winds: from the SSE (160 degrees) at 12 MPH (10 knots; 5.1 m/s)
Visibility: 6 or more miles (10+ km)
Ceiling: ceiling and visibility are OK
Clouds: unknown
Weather: no significant weather observed at this time

METAR text: LFTW 171200Z AUTO 17010KT 110V210 CAVOK 28/19 Q1016 NOSIG
Conditions at: LFTW (NIMES/GARONS (NA, FR) observed 1200 UTC 17 August 2019
Temperature: 28.0°C (82°F)
Dewpoint: 19.0°C (66°F) [RH = 58%]
Pressure (altimeter): 30.00 inches Hg (1016.0 mb)
Winds: from the S (170 degrees) at 12 MPH (10 knots; 5.1 m/s)
Visibility: 6 or more miles (10+ km)
Ceiling: ceiling and visibility are OK
Clouds: unknown
Weather: no significant weather observed at this time

METAR text: LFTW 171130Z AUTO 17010KT 130V220 CAVOK 28/18 Q1016 NOSIG
Conditions at: LFTW (NIMES/GARONS (NA, FR) observed 1130 UTC 17 August 2019
Temperature: 28.0°C (82°F)
Dewpoint: 18.0°C (64°F) [RH = 55%]
Pressure (altimeter): 30.00 inches Hg (1016.0 mb)
Winds: from the S (170 degrees) at 12 MPH (10 knots; 5.1 m/s)
Visibility: 6 or more miles (10+ km)
Ceiling: ceiling and visibility are OK
Clouds: unknown
Weather: no significant weather observed at this time

Forecast for: LFTW (NIMES/GARONS (NA, FR)
Text: TAF LFTW 181400Z 1815/1915 18012KT 9999 SCT030
Forecast period: 1500 to 2200 UTC 18 August 2019
Forecast type: FROM: standard forecast or significant change
Winds: from the S (180 degrees) at 14 MPH (12 knots; 6.2 m/s)
Visibility: 6 or more miles 10+ km)
Ceiling: at least 12,000 feet AGL
Clouds: scattered clouds at 3000 feet AGL
Weather: no significant weather forecast for this period
Text: BECMG 1822/1824 VRB02KT 3000 BR OVC004
Forecast period: 2200 UTC 18 August 2019 to 0500 UTC 19 August 2019
Forecast type: BECOMING: Conditions expected to become as follows by 0000 UTC 19 August 2019
Winds: variable direction winds at 2 MPH (2 knots; 1.0 m/s)
Visibility: 1.86 miles (2.99 km)
Ceiling: 400 feet AGL
Clouds: overcast cloud deck at 400 feet AGL
Weather: BR  (mist)
Text: BECMG 1905/1907 9999 NSW BKN020
Forecast period: 0500 to 1300 UTC 19 August 2019
Forecast type: BECOMING: Conditions expected to become as follows by 0700 UTC 19 August 2019
Winds: variable direction winds at 2 MPH (2 knots; 1.0 m/s)
Visibility: 6 or more miles 10+ km)
Ceiling: 2000 feet AGL
Clouds: broken clouds at 2000 feet AGL
Weather: NSW  (no significant weather)
Text: BECMG 1913/1915 18012KT
Forecast period: 1300 to 1500 UTC 19 August 2019
Forecast type: BECOMING: Conditions expected to become as follows by 1500 UTC 19 August 2019
Winds: from the S (180 degrees) at 14 MPH (12 knots; 6.2 m/s)
Visibility: 6 or more miles 10+ km)
Ceiling: 2000 feet AGL
Clouds: broken clouds at 2000 feet AGL
Weather: NSW  (no significant weather)